createdAt,value
2018-05-27T00:02:20.985Z,19.64
2018-05-27T00:04:53.749Z,19.65
2018-05-27T00:07:35.639Z,19.63
2018-05-27T00:10:17.492Z,19.59
2018-05-27T00:12:51.524Z,19.54
2018-05-27T00:15:24.674Z,19.54
2018-05-27T00:18:12.323Z,19.58
2018-05-27T00:20:47.692Z,19.48
2018-05-27T00:23:16.029Z,19.40
2018-05-27T00:26:03.902Z,19.34
2018-05-27T00:28:36.354Z,19.28
2018-05-27T00:31:04.677Z,19.26
2018-05-27T00:33:37.429Z,19.19
2018-05-27T00:36:05.866Z,19.11
2018-05-27T00:38:37.921Z,19.06
2018-05-27T00:41:07.065Z,19.03
2018-05-27T00:43:35.356Z,19.00
2018-05-27T00:46:05.594Z,18.96
2018-05-27T00:48:37.665Z,18.93
2018-05-27T00:51:09.292Z,18.88
2018-05-27T00:53:55.815Z,18.85
2018-05-27T00:56:24.926Z,18.82
2018-05-27T00:58:56.975Z,18.79
2018-05-27T01:01:29.652Z,18.76
2018-05-27T01:04:00.708Z,18.72
2018-05-27T01:06:41.686Z,18.69
2018-05-27T01:09:14.971Z,18.64
2018-05-27T01:11:45.297Z,18.66
2018-05-27T01:14:19.418Z,18.63
2018-05-27T01:16:49.719Z,18.61
2018-05-27T01:19:25.466Z,18.58
2018-05-27T01:21:53.735Z,18.52
2018-05-27T01:24:23.902Z,18.52
2018-05-27T01:26:53.379Z,18.54
2018-05-27T01:29:21.725Z,18.47
2018-05-27T01:32:09.002Z,18.42
2018-05-27T01:34:41.849Z,18.40
2018-05-27T01:37:12.977Z,18.40
2018-05-27T01:39:41.334Z,18.40
2018-05-27T01:42:10.671Z,18.42
2018-05-27T01:44:44.357Z,18.41
2018-05-27T01:47:15.294Z,18.36
2018-05-27T01:49:47.164Z,18.34
2018-05-27T01:52:19.771Z,18.30
2018-05-27T01:54:49.934Z,18.31
2018-05-27T01:57:21.249Z,18.35
2018-05-27T01:59:52.280Z,18.38
2018-05-27T02:02:24.016Z,18.40
2018-05-27T02:04:58.687Z,18.36
2018-05-27T02:07:37.741Z,18.32
2018-05-27T02:10:14.345Z,18.25
2018-05-27T02:12:49.386Z,18.24
2018-05-27T02:15:30.352Z,18.22
2018-05-27T02:18:10.668Z,18.22
2018-05-27T02:20:41.872Z,18.25
2018-05-27T02:23:19.061Z,18.28
2018-05-27T02:25:53.281Z,18.30
2018-05-27T02:28:22.698Z,18.27
2018-05-27T02:30:56.814Z,18.29
2018-05-27T02:33:28.544Z,18.28
2018-05-27T02:36:00.579Z,18.26
2018-05-27T02:38:33.869Z,18.28
2018-05-27T02:44:14.776Z,18.17
2018-05-27T02:46:54.503Z,18.15
2018-05-27T02:49:24.234Z,18.15
2018-05-27T02:52:01.745Z,18.17
2018-05-27T02:54:48.527Z,18.21
2018-05-27T02:57:32.811Z,18.22
2018-05-27T03:00:01.735Z,18.13
2018-05-27T03:02:43.441Z,18.09
2018-05-27T03:05:14.471Z,18.08
2018-05-27T03:08:01.858Z,18.10
2018-05-27T03:10:37.913Z,18.13
2018-05-27T03:13:07.343Z,18.15
2018-05-27T03:15:37.598Z,18.13
2018-05-27T03:18:12.405Z,18.16
2018-05-27T03:20:46.004Z,18.14
2018-05-27T03:23:15.219Z,18.12
2018-05-27T03:25:48.142Z,18.11
2018-05-27T03:28:26.707Z,18.16
2018-05-27T03:31:00.646Z,18.17
2018-05-27T03:33:31.998Z,18.16
2018-05-27T03:36:04.077Z,18.16
2018-05-27T03:38:49.520Z,18.13
2018-05-27T03:41:33.265Z,18.07
2018-05-27T03:44:02.647Z,18.04
2018-05-27T03:46:36.754Z,18.06
2018-05-27T03:49:11.029Z,18.07
2018-05-27T03:51:43.218Z,18.08
2018-05-27T03:54:15.207Z,18.11
2018-05-27T03:56:48.890Z,18.15
2018-05-27T03:59:23.065Z,18.18
2018-05-27T04:02:05.816Z,18.20
2018-05-27T04:04:58.361Z,18.20
2018-05-27T04:07:46.085Z,18.19
2018-05-27T04:10:16.778Z,18.19
2018-05-27T04:12:46.656Z,18.20
2018-05-27T04:15:19.993Z,18.20
2018-05-27T04:17:50.905Z,18.20
2018-05-27T04:20:20.235Z,18.24
2018-05-27T04:22:56.051Z,18.22
2018-05-27T04:25:28.825Z,18.18
2018-05-27T04:27:59.090Z,18.20
2018-05-27T04:30:33.494Z,18.22
2018-05-27T04:33:06.023Z,18.16
2018-05-27T04:35:38.346Z,18.16
2018-05-27T04:38:16.983Z,18.18
2018-05-27T04:40:45.414Z,18.20
2018-05-27T04:43:22.840Z,18.23
2018-05-27T04:45:52.211Z,18.23
2018-05-27T04:48:28.919Z,18.22
2018-05-27T04:50:58.293Z,18.33
2018-05-27T04:53:29.246Z,18.34
2018-05-27T04:56:00.199Z,18.26
2018-05-27T04:58:30.661Z,18.30
2018-05-27T05:01:15.963Z,18.43
2018-05-27T05:03:49.111Z,18.55
2018-05-27T05:06:20.939Z,18.75
2018-05-27T05:08:52.573Z,18.91
2018-05-27T05:11:26.275Z,19.00
2018-05-27T05:14:02.849Z,19.11
2018-05-27T05:16:31.928Z,19.31
2018-05-27T05:19:02.579Z,19.58
2018-05-27T05:21:41.048Z,19.87
2018-05-27T05:24:12.953Z,20.05
2018-05-27T05:26:53.943Z,20.21
2018-05-27T05:29:26.420Z,20.40
2018-05-27T05:32:07.618Z,20.33
2018-05-27T05:35:03.055Z,20.50
2018-05-27T05:37:35.569Z,20.84
2018-05-27T05:40:06.389Z,21.21
2018-05-27T05:42:41.214Z,21.47
2018-05-27T05:45:23.191Z,21.84
2018-05-27T05:48:06.245Z,22.33
2018-05-27T05:50:43.577Z,22.64
2018-05-27T05:53:26.913Z,22.54
2018-05-27T05:55:55.468Z,22.42
2018-05-27T05:58:33.026Z,23.07
2018-05-27T06:01:15.768Z,23.59
2018-05-27T06:03:45.266Z,23.89
2018-05-27T06:06:34.647Z,23.44
2018-05-27T06:09:08.822Z,23.36
2018-05-27T06:11:38.123Z,22.91
2018-05-27T06:14:07.080Z,23.46
2018-05-27T06:16:35.665Z,23.07
2018-05-27T06:19:09.437Z,22.50
2018-05-27T06:21:40.491Z,22.35
2018-05-27T06:24:11.059Z,22.16
2018-05-27T06:26:40.546Z,22.23
2018-05-27T06:29:08.871Z,22.19
2018-05-27T06:31:46.260Z,22.38
2018-05-27T06:34:14.631Z,21.95
2018-05-27T06:36:45.013Z,22.21
2018-05-27T06:39:13.915Z,22.30
2018-05-27T06:41:53.347Z,22.24
2018-05-27T06:44:21.776Z,22.41
2018-05-27T06:46:51.060Z,22.61
2018-05-27T06:49:45.138Z,22.81
2018-05-27T06:52:13.431Z,22.62
2018-05-27T06:54:47.795Z,22.54
2018-05-27T06:57:16.838Z,22.81
2018-05-27T06:59:52.083Z,22.68
2018-05-27T07:02:20.581Z,23.00
2018-05-27T07:04:49.887Z,22.98
2018-05-27T07:07:18.150Z,23.04
2018-05-27T07:09:47.443Z,22.81
2018-05-27T07:12:17.096Z,22.64
2018-05-27T07:14:48.331Z,22.61
2018-05-27T07:17:18.555Z,22.58
2018-05-27T07:19:47.669Z,23.12
2018-05-27T07:22:16.019Z,23.06
2018-05-27T07:24:45.095Z,23.25
2018-05-27T07:27:19.219Z,22.93
2018-05-27T07:29:52.078Z,22.87
2018-05-27T07:32:21.398Z,22.91
2018-05-27T07:35:08.856Z,22.83
2018-05-27T07:37:42.292Z,22.61
2018-05-27T07:40:13.959Z,22.54
2018-05-27T07:42:50.483Z,22.57
2018-05-27T07:45:23.312Z,22.60
2018-05-27T07:48:01.825Z,22.64
2018-05-27T07:50:30.168Z,22.62
2018-05-27T07:55:38.631Z,24.02
2018-05-27T07:58:14.338Z,24.05
2018-05-27T08:00:48.305Z,24.10
2018-05-27T08:03:24.877Z,24.11
2018-05-27T08:05:54.164Z,24.16
2018-05-27T08:08:27.033Z,23.86
2018-05-27T08:11:01.532Z,23.79
2018-05-27T08:13:30.679Z,24.76
2018-05-27T08:16:03.269Z,25.32
2018-05-27T08:18:41.877Z,25.21
2018-05-27T08:21:11.232Z,25.18
2018-05-27T08:23:42.950Z,25.36
2018-05-27T08:26:12.659Z,26.09
2018-05-27T08:28:54.194Z,26.12
2018-05-27T08:31:31.477Z,25.93
2018-05-27T08:34:06.585Z,26.10
2018-05-27T08:36:39.152Z,25.85
2018-05-27T08:39:13.304Z,26.64
2018-05-27T08:41:55.159Z,26.54
2018-05-27T08:44:40.586Z,27.19
2018-05-27T08:47:17.374Z,27.12
2018-05-27T08:49:52.543Z,28.29
2018-05-27T08:55:43.928Z,27.48
2018-05-27T08:58:15.709Z,28.20
2018-05-27T09:03:40.092Z,28.23
2018-05-27T09:06:12.278Z,28.57
2018-05-27T09:08:44.079Z,29.59
2018-05-27T09:11:13.496Z,29.80
2018-05-27T09:13:47.827Z,30.79
2018-05-27T09:16:16.913Z,30.35
2018-05-27T09:19:01.290Z,30.47
2018-05-27T09:21:41.270Z,30.75
2018-05-27T09:24:23.738Z,30.44
2018-05-27T09:27:09.543Z,31.71
2018-05-27T09:29:55.381Z,32.60
2018-05-27T09:32:37.302Z,31.93
2018-05-27T09:35:06.375Z,31.86
2018-05-27T09:37:46.340Z,33.68
2018-05-27T09:40:15.454Z,30.88
2018-05-27T09:42:53.661Z,31.88
2018-05-27T09:45:34.601Z,31.95
2018-05-27T09:48:03.005Z,32.09
2018-05-27T09:50:32.264Z,32.56
2018-05-27T09:53:06.458Z,33.22
2018-05-27T09:55:42.335Z,31.17
2018-05-27T09:58:12.308Z,32.69
2018-05-27T10:00:45.991Z,33.63
2018-05-27T10:03:16.677Z,34.78
2018-05-27T10:05:44.970Z,34.37
2018-05-27T10:08:32.934Z,36.12
2018-05-27T10:11:04.852Z,34.90
2018-05-27T10:13:50.172Z,35.67
2018-05-27T10:16:19.650Z,34.64
2018-05-27T10:18:52.825Z,33.82
2018-05-27T10:21:29.819Z,33.19
2018-05-27T10:23:59.287Z,33.72
2018-05-27T10:26:28.632Z,35.69
2018-05-27T10:29:02.268Z,36.99
2018-05-27T10:31:41.784Z,33.98
2018-05-27T10:34:11.097Z,33.87
2018-05-27T10:36:41.455Z,32.15
2018-05-27T10:39:21.070Z,33.78
2018-05-27T10:42:01.645Z,35.06
2018-05-27T10:44:31.223Z,37.17
2018-05-27T10:53:58.758Z,35.35
2018-05-27T10:56:33.423Z,37.13
2018-05-27T10:59:03.953Z,36.26
2018-05-27T11:01:33.281Z,38.25
2018-05-27T11:04:01.555Z,38.53
2018-05-27T11:06:29.803Z,37.89
2018-05-27T11:08:59.119Z,37.96
2018-05-27T11:11:27.564Z,36.06
2018-05-27T11:14:00.952Z,34.44
2018-05-27T11:16:32.707Z,33.44
2018-05-27T11:19:07.055Z,33.12
2018-05-27T11:21:35.377Z,35.13
2018-05-27T11:24:04.608Z,35.40
2018-05-27T11:26:33.023Z,37.74
2018-05-27T11:29:01.319Z,37.09
2018-05-27T11:31:30.418Z,33.77
2018-05-27T11:33:58.707Z,34.67
2018-05-27T11:36:27.807Z,34.82
2018-05-27T11:39:00.952Z,34.30
2018-05-27T11:41:31.299Z,35.84
2018-05-27T11:44:04.261Z,36.61
2018-05-27T11:46:36.564Z,35.29
2018-05-27T11:49:05.138Z,38.00
2018-05-27T11:51:36.941Z,37.86
2018-05-27T11:54:09.892Z,38.04
2018-05-27T11:56:39.979Z,39.95
2018-05-27T11:59:16.116Z,37.47
2018-05-27T12:01:45.412Z,38.11
2018-05-27T12:04:17.951Z,39.13
2018-05-27T12:06:46.264Z,37.23
2018-05-27T12:09:38.775Z,36.09
2018-05-27T12:12:08.915Z,35.80
2018-05-27T12:14:41.126Z,35.68
2018-05-27T12:17:09.428Z,37.09
2018-05-27T12:19:43.261Z,38.72
2018-05-27T12:22:17.775Z,39.23
2018-05-27T12:24:47.896Z,40.43
2018-05-27T12:27:23.487Z,41.46
2018-05-27T12:29:56.552Z,40.74
2018-05-27T12:32:29.718Z,41.59
2018-05-27T12:35:00.598Z,38.48
2018-05-27T12:37:42.616Z,37.32
2018-05-27T12:40:19.494Z,38.59
2018-05-27T12:42:56.771Z,39.00
2018-05-27T12:45:27.035Z,39.49
2018-05-27T12:48:06.787Z,39.59
2018-05-27T12:50:41.707Z,39.89
2018-05-27T12:53:11.086Z,36.12
2018-05-27T12:58:23.006Z,33.12
2018-05-27T13:00:52.717Z,32.89
2018-05-27T13:03:23.320Z,34.48
2018-05-27T13:05:53.992Z,34.91
2018-05-27T13:08:30.811Z,35.37
2018-05-27T13:11:03.856Z,36.07
2018-05-27T13:13:38.811Z,35.15
2018-05-27T13:16:12.491Z,34.68
2018-05-27T13:18:43.735Z,32.93
2018-05-27T13:21:15.095Z,32.89
2018-05-27T13:23:46.882Z,33.70
2018-05-27T13:26:34.423Z,34.24
2018-05-27T13:29:22.186Z,34.57
2018-05-27T13:31:56.035Z,35.49
2018-05-27T13:34:29.338Z,35.27
2018-05-27T13:36:59.772Z,35.06
2018-05-27T13:39:29.324Z,35.11
2018-05-27T13:42:04.895Z,35.37
2018-05-27T13:44:37.115Z,35.95
2018-05-27T13:47:13.976Z,36.06
2018-05-27T13:49:53.411Z,35.65
2018-05-27T13:52:29.347Z,37.45
2018-05-27T13:55:00.192Z,37.94
2018-05-27T13:57:46.773Z,38.10
2018-05-27T14:00:22.540Z,38.42
2018-05-27T14:02:56.869Z,36.60
2018-05-27T14:05:31.187Z,37.29
2018-05-27T14:08:03.120Z,38.15
2018-05-27T14:10:38.744Z,39.15
2018-05-27T14:13:08.055Z,37.87
2018-05-27T14:15:36.358Z,36.38
2018-05-27T14:18:04.682Z,34.54
2018-05-27T14:20:37.804Z,31.63
2018-05-27T14:23:10.808Z,31.49
2018-05-27T14:25:47.259Z,30.71
2018-05-27T14:28:19.473Z,32.06
2018-05-27T14:30:48.549Z,33.78
2018-05-27T14:33:16.940Z,35.95
2018-05-27T14:35:49.613Z,37.05
2018-05-27T14:38:44.037Z,36.74
2018-05-27T14:41:17.512Z,36.58
2018-05-27T14:43:48.553Z,38.72
2018-05-27T14:46:24.817Z,37.24
2018-05-27T14:49:03.404Z,37.71
2018-05-27T14:51:33.345Z,37.77
2018-05-27T14:54:07.737Z,37.76
2018-05-27T14:56:36.296Z,36.43
2018-05-27T14:59:17.078Z,38.40
2018-05-27T15:01:52.227Z,37.66
2018-05-27T15:04:28.143Z,38.21
2018-05-27T15:06:56.486Z,38.29
2018-05-27T15:09:25.832Z,39.22
2018-05-27T15:11:59.948Z,38.81
2018-05-27T15:14:32.013Z,35.89
2018-05-27T15:17:04.051Z,33.19
2018-05-27T15:19:32.405Z,34.67
2018-05-27T15:22:01.738Z,34.14
2018-05-27T15:24:30.136Z,33.57
2018-05-27T15:27:02.597Z,32.50
2018-05-27T15:29:38.353Z,32.09
2018-05-27T15:32:06.903Z,31.57
2018-05-27T15:34:40.632Z,32.13
2018-05-27T15:37:09.217Z,34.79
2018-05-27T15:39:39.564Z,37.73
2018-05-27T15:42:22.502Z,36.87
2018-05-27T15:44:50.788Z,36.06
2018-05-27T15:47:19.045Z,33.49
2018-05-27T15:49:59.891Z,33.29
2018-05-27T15:52:29.114Z,35.45
2018-05-27T15:55:08.863Z,36.47
2018-05-27T15:57:37.275Z,35.42
2018-05-27T16:00:05.531Z,35.45
2018-05-27T16:02:43.280Z,35.18
2018-05-27T16:05:11.643Z,34.46
2018-05-27T16:07:42.824Z,34.60
2018-05-27T16:10:15.460Z,35.40
2018-05-27T16:12:57.654Z,35.45
2018-05-27T16:15:52.455Z,36.22
2018-05-27T16:18:28.955Z,33.51
2018-05-27T16:21:00.314Z,33.90
2018-05-27T16:23:29.814Z,34.08
2018-05-27T16:26:00.798Z,34.40
2018-05-27T16:28:36.583Z,35.43
2018-05-27T16:31:09.823Z,36.87
2018-05-27T16:33:38.321Z,35.76
2018-05-27T16:36:18.162Z,36.85
2018-05-27T16:38:55.326Z,36.68
2018-05-27T16:41:31.051Z,35.99
2018-05-27T16:44:03.669Z,36.78
2018-05-27T16:46:37.433Z,37.37
2018-05-27T16:49:08.851Z,38.21
2018-05-27T16:51:37.124Z,36.27
2018-05-27T16:54:26.820Z,35.85
2018-05-27T16:57:06.259Z,36.02
2018-05-27T16:59:40.091Z,35.15
2018-05-27T17:02:28.224Z,35.74
2018-05-27T17:04:58.745Z,36.42
2018-05-27T17:07:32.621Z,35.02
2018-05-27T17:10:08.835Z,33.56
2018-05-27T17:12:42.859Z,32.95
2018-05-27T17:15:26.513Z,31.42
2018-05-27T17:17:59.669Z,31.10
2018-05-27T17:20:45.424Z,30.76
2018-05-27T17:23:16.178Z,30.59
2018-05-27T17:26:08.503Z,30.51
2018-05-27T17:28:49.307Z,29.89
2018-05-27T17:31:44.101Z,29.80
2018-05-27T17:34:17.747Z,29.48
2018-05-27T17:36:52.711Z,29.59
2018-05-27T17:39:20.950Z,29.39
2018-05-27T17:44:41.522Z,29.15
2018-05-27T17:47:10.845Z,29.39
2018-05-27T17:49:40.960Z,28.50
2018-05-27T17:52:10.224Z,28.10
2018-05-27T17:54:40.505Z,27.89
2018-05-27T17:57:12.595Z,28.21
2018-05-27T17:59:49.188Z,27.91
2018-05-27T18:02:28.354Z,27.67
2018-05-27T18:04:58.999Z,27.98
2018-05-27T18:07:30.376Z,27.80
2018-05-27T18:10:01.397Z,27.99
2018-05-27T18:12:38.378Z,27.42
2018-05-27T18:15:08.321Z,26.98
2018-05-27T18:17:40.781Z,26.94
2018-05-27T18:20:09.187Z,26.43
2018-05-27T18:22:42.868Z,26.59
2018-05-27T18:25:32.652Z,27.07
2018-05-27T18:28:07.513Z,27.40
2018-05-27T18:30:38.539Z,27.20
2018-05-27T18:33:08.046Z,26.74
2018-05-27T18:35:46.939Z,26.45
2018-05-27T18:38:17.209Z,26.13
2018-05-27T18:40:46.368Z,25.67
2018-05-27T18:43:16.883Z,25.29
2018-05-27T18:45:45.325Z,24.92
2018-05-27T18:48:14.384Z,24.69
2018-05-27T18:50:49.640Z,24.49
2018-05-27T18:53:18.738Z,24.33
2018-05-27T18:55:47.895Z,24.20
2018-05-27T18:58:20.027Z,24.06
2018-05-27T19:00:51.763Z,23.93
2018-05-27T19:03:22.833Z,23.76
2018-05-27T19:05:52.074Z,23.58
2018-05-27T19:08:26.800Z,23.42
2018-05-27T19:10:55.243Z,23.26
2018-05-27T19:13:27.565Z,23.12
2018-05-27T19:16:09.730Z,23.05
2018-05-27T19:18:40.922Z,22.95
2018-05-27T19:21:22.058Z,22.88
2018-05-27T19:23:50.408Z,22.82
2018-05-27T19:26:24.574Z,22.74
2018-05-27T19:28:53.883Z,22.72
2018-05-27T19:31:40.792Z,22.70
2018-05-27T19:34:12.453Z,22.64
2018-05-27T19:36:40.717Z,22.55
2018-05-27T19:39:12.162Z,22.46
2018-05-27T19:41:43.960Z,22.34
2018-05-27T19:44:14.984Z,22.24
2018-05-27T19:46:43.528Z,22.16
2018-05-27T19:49:11.915Z,22.09
2018-05-27T19:51:40.223Z,22.05
2018-05-27T19:54:09.182Z,22.02
2018-05-27T19:56:38.522Z,22.00
2018-05-27T19:59:09.545Z,22.14
2018-05-27T20:01:39.119Z,22.21
2018-05-27T20:04:12.207Z,22.32
2018-05-27T20:06:50.636Z,22.30
2018-05-27T20:09:22.605Z,22.19
2018-05-27T20:11:51.913Z,22.06
2018-05-27T20:14:20.190Z,21.97
2018-05-27T20:16:54.239Z,21.85
2018-05-27T20:19:22.609Z,21.67
2018-05-27T20:21:55.241Z,21.48
2018-05-27T20:24:28.156Z,21.36
2018-05-27T20:26:57.611Z,21.26
2018-05-27T20:29:29.819Z,21.18
2018-05-27T20:31:59.160Z,21.11
2018-05-27T20:34:33.008Z,21.03
2018-05-27T20:37:03.350Z,20.96
2018-05-27T20:39:32.902Z,20.96
2018-05-27T20:42:09.728Z,21.03
2018-05-27T20:44:45.678Z,21.07
2018-05-27T20:47:27.442Z,21.26
2018-05-27T20:49:55.795Z,21.07
2018-05-27T20:52:31.426Z,20.88
2018-05-27T20:55:06.522Z,20.77
2018-05-27T20:57:37.052Z,20.68
2018-05-27T21:00:07.798Z,20.62
2018-05-27T21:02:46.770Z,20.56
2018-05-27T21:05:23.248Z,20.47
2018-05-27T21:07:54.233Z,20.40
2018-05-27T21:10:23.900Z,20.36
2018-05-27T21:13:05.733Z,20.33
2018-05-27T21:15:41.214Z,20.28
2018-05-27T21:18:29.727Z,20.33
2018-05-27T21:21:13.461Z,20.36
2018-05-27T21:23:43.081Z,20.31
2018-05-27T21:26:16.710Z,20.39
2018-05-27T21:28:56.426Z,20.42
2018-05-27T21:31:26.754Z,20.37
2018-05-27T21:34:07.988Z,20.31
2018-05-27T21:36:43.943Z,20.35
2018-05-27T21:39:14.728Z,20.30
2018-05-27T21:41:56.176Z,20.21
2018-05-27T21:44:31.707Z,20.09
2018-05-27T21:47:01.551Z,20.04
2018-05-27T21:49:34.323Z,19.97
2018-05-27T21:52:13.619Z,19.87
2018-05-27T21:54:45.648Z,19.79
2018-05-27T21:57:21.228Z,19.64
2018-05-27T22:00:00.905Z,19.50
2018-05-27T22:02:47.063Z,19.39
2018-05-27T22:05:25.567Z,19.40
2018-05-27T22:07:54.110Z,19.42
2018-05-27T22:10:25.846Z,19.41
2018-05-27T22:12:59.623Z,19.49
2018-05-27T22:15:30.564Z,19.46
2018-05-27T22:18:03.771Z,19.44
2018-05-27T22:20:37.235Z,19.45
2018-05-27T22:23:07.336Z,19.43
2018-05-27T22:28:44.003Z,19.35
2018-05-27T22:31:18.181Z,19.31
2018-05-27T22:33:52.294Z,19.28
2018-05-27T22:36:35.267Z,19.25
2018-05-27T22:39:09.836Z,19.19
2018-05-27T22:41:49.470Z,19.09
2018-05-27T22:44:23.319Z,19.00
2018-05-27T22:46:53.783Z,18.99
2018-05-27T22:49:25.467Z,18.87
2018-05-27T22:51:55.846Z,18.74
2018-05-27T22:54:25.221Z,18.67
2018-05-27T22:57:06.090Z,18.64
2018-05-27T22:59:47.119Z,18.63
2018-05-27T23:02:21.759Z,18.65
2018-05-27T23:04:54.042Z,18.69
2018-05-27T23:07:24.152Z,18.70
2018-05-27T23:09:55.911Z,18.73
2018-05-27T23:12:26.832Z,18.79
2018-05-27T23:14:59.023Z,18.79
2018-05-27T23:17:28.473Z,18.83
2018-05-27T23:20:00.091Z,18.84
2018-05-27T23:22:43.424Z,18.88
2018-05-27T23:25:16.409Z,18.90
2018-05-27T23:27:47.750Z,18.90
2018-05-27T23:30:24.576Z,18.87
2018-05-27T23:32:53.938Z,18.84
2018-05-27T23:35:34.645Z,18.80
2018-05-27T23:38:03.099Z,18.87
2018-05-27T23:40:32.172Z,18.74
2018-05-27T23:43:01.498Z,18.61
2018-05-27T23:45:43.971Z,18.53
2018-05-27T23:48:12.267Z,18.48
2018-05-27T23:50:40.513Z,18.46
2018-05-27T23:53:10.779Z,18.39
2018-05-27T23:55:52.886Z,18.32
2018-05-27T23:58:22.071Z,18.30
